Time;durP1;ratioP1;P1;durP2;ratioP2;P2;SDS_P1;SDS_P2;PMS_P1;PMS_P2;Temp;Humidity;BMP_temperature;BMP_pressure;BME280_temperature;BME280_humidity;BME280_pressure;Samples;Min_cycle;Max_cycle;Signal;HPM_P1;HPM_P2
2021/10/01 00:00:18;;;;;;;;;;;;;;;;;;5081590;28;19924;-62
2021/10/01 00:02:45;;;;;;;;;;;;;;;;;;5086459;28;20055;-62
2021/10/01 00:05:12;;;;;;;;;;;;;;;;;;5089712;28;19932;-63
2021/10/01 00:07:39;;;;;;;;;;;;;;;;;;5085441;28;19931;-62
2021/10/01 00:10:06;;;;;;;;;;;;;;;;;;5083481;28;19932;-63
2021/10/01 00:12:33;;;;;;;;;;;;;;;;;;5087159;28;19924;-62
2021/10/01 00:15:00;;;;;;;;;;;;;;;;;;5092684;28;19928;-62
2021/10/01 00:17:27;;;;;;;;;;;;;;;;;;5090152;28;19928;-62
2021/10/01 00:19:53;;;;;;;;;;;;;;;;;;5086540;28;19931;-62
2021/10/01 00:22:20;;;;;;;;;;;;;;;;;;5089210;28;19931;-62
2021/10/01 00:24:47;;;;;;;;;;;;;;;;;;5087222;28;19924;-62
2021/10/01 00:27:14;;;;;;;;;;;;;;;;;;5091140;28;20320;-62
2021/10/01 00:29:41;;;;;;;;;;;;;;;;;;5085543;28;19931;-63
2021/10/01 00:32:08;;;;;;;;;;;;;;;;;;5093251;28;19924;-62
2021/10/01 00:34:35;;;;;;;;;;;;;;;;;;5093069;28;20292;-62
2021/10/01 00:37:02;;;;;;;;;;;;;;;;;;5091611;28;19928;-62
2021/10/01 00:39:29;;;;;;;;;;;;;;;;;;5089925;28;20341;-62
2021/10/01 00:41:56;;;;;;;;;;;;;;;;;;5090789;28;20394;-62
2021/10/01 00:44:23;;;;;;;;;;;;;;;;;;5090461;28;20404;-62
2021/10/01 00:46:50;;;;;;;;;;;;;;;;;;5091055;28;19939;-62
2021/10/01 00:49:16;;;;;;;;;;;;;;;;;;5087958;28;19925;-62
2021/10/01 00:51:43;;;;;;;;;;;;;;;;;;5088575;28;19954;-62
2021/10/01 00:54:10;;;;;;;;;;;;;;;;;;5089085;28;20407;-62
2021/10/01 00:56:37;;;;;;;;;;;;;;;;;;5089088;28;19944;-61
2021/10/01 00:59:04;;;;;;;;;;;;;;;;;;5088973;28;19939;-62
2021/10/01 01:01:31;;;;;;;;;;;;;;;;;;5090110;28;19924;-62
2021/10/01 01:03:59;;;;;;;;;;;;;;;;;;5087445;28;19931;-62
2021/10/01 01:06:26;;;;;;;;;;;;;;;;;;5089644;28;19924;-62
2021/10/01 01:08:53;;;;;;;;;;;;;;;;;;5090051;28;19934;-62
2021/10/01 01:11:20;;;;;;;;;;;;;;;;;;5086794;28;20410;-62
2021/10/01 01:13:47;;;;;;;;;;;;;;;;;;5091532;28;19924;-62
2021/10/01 01:16:14;;;;;;;;;;;;;;;;;;5086913;28;19959;-62
2021/10/01 01:18:41;;;;;;;;;;;;;;;;;;5089011;28;19928;-62
2021/10/01 01:21:08;;;;;;;;;;;;;;;;;;5089213;28;19935;-62
2021/10/01 01:23:34;;;;;;;;;;;;;;;;;;5089843;28;19928;-62
2021/10/01 01:26:02;;;;;;;;;;;;;;;;;;5090607;28;19931;-62
2021/10/01 01:28:29;;;;;;;;;;;;;;;;;;5091190;28;19924;-60
2021/10/01 01:30:56;;;;;;;;;;;;;;;;;;5089797;28;19924;-61
2021/10/01 01:33:23;;;;;;;;;;;;;;;;;;5092322;28;19945;-62
2021/10/01 01:35:50;;;;;;;;;;;;;;;;;;5092343;28;19925;-63
2021/10/01 01:38:17;;;;;;;;;;;;;;;;;;5090928;28;19925;-62
2021/10/01 01:40:44;;;;;;;;;;;;;;;;;;5093544;28;19931;-62
2021/10/01 01:43:11;;;;;;;;;;;;;;;;;;5087254;28;19932;-62
2021/10/01 01:45:38;;;;;;;;;;;;;;;;;;5088243;28;19924;-61
2021/10/01 01:48:05;;;;;;;;;;;;;;;;;;5091532;28;20403;-62
2021/10/01 01:50:32;;;;;;;;;;;;;;;;;;5091291;28;19931;-62
2021/10/01 01:52:59;;;;;;;;;;;;;;;;;;5090619;28;19931;-61
2021/10/01 01:55:26;;;;;;;;;;;;;;;;;;5089036;28;19947;-62
2021/10/01 01:57:52;;;;;;;;;;;;;;;;;;5088707;28;19938;-62
2021/10/01 02:00:19;;;;;;;;;;;;;;;;;;5082678;28;19928;-62
2021/10/01 02:02:46;;;;;;;;;;;;;;;;;;5087914;28;20393;-62
2021/10/01 02:05:13;;;;;;;;;;;;;;;;;;5089019;28;19942;-62
2021/10/01 02:07:40;;;;;;;;;;;;;;;;;;5089028;28;20303;-62
2021/10/01 02:10:07;;;;;;;;;;;;;;;;;;5085798;28;19931;-62
2021/10/01 02:12:34;;;;;;;;;;;;;;;;;;5087870;28;19924;-62
2021/10/01 02:15:01;;;;;;;;;;;;;;;;;;5086708;28;20237;-62
2021/10/01 02:17:28;;;;;;;;;;;;;;;;;;5086825;28;19928;-62
2021/10/01 02:19:55;;;;;;;;;;;;;;;;;;5086926;28;19924;-62
2021/10/01 02:22:21;;;;;;;;;;;;;;;;;;5087418;28;19932;-62
2021/10/01 02:24:49;;;;;;;;;;;;;;;;;;5087715;28;20318;-62
2021/10/01 02:27:15;;;;;;;;;;;;;;;;;;5087824;28;19931;-62
2021/10/01 02:29:42;;;;;;;;;;;;;;;;;;5085660;28;19924;-62
2021/10/01 02:32:09;;;;;;;;;;;;;;;;;;5085489;28;19924;-61
2021/10/01 02:34:36;;;;;;;;;;;;;;;;;;5089629;28;20278;-61
2021/10/01 02:37:03;;;;;;;;;;;;;;;;;;5091173;28;20378;-68
2021/10/01 02:39:29;;;;;;;;;;;;;;;;;;5089306;28;19924;-62
2021/10/01 02:41:56;;;;;;;;;;;;;;;;;;5088373;28;20284;-62
2021/10/01 02:44:23;;;;;;;;;;;;;;;;;;5084218;28;20129;-62
2021/10/01 02:46:50;;;;;;;;;;;;;;;;;;5088670;28;20300;-63
2021/10/01 02:49:17;;;;;;;;;;;;;;;;;;5091360;28;19935;-62
2021/10/01 02:51:44;;;;;;;;;;;;;;;;;;5092035;28;19939;-61
2021/10/01 02:54:11;;;;;;;;;;;;;;;;;;5089621;28;19942;-62
2021/10/01 02:56:38;;;;;;;;;;;;;;;;;;5087822;28;19924;-62
2021/10/01 02:59:05;;;;;;;;;;;;;;;;;;5089772;28;20289;-62
2021/10/01 03:01:32;;;;;;;;;;;;;;;;;;5083208;28;19931;-62
2021/10/01 03:03:59;;;;;;;;;;;;;;;;;;5091393;28;20412;-62
2021/10/01 03:06:26;;;;;;;;;;;;;;;;;;5087264;28;19931;-63
2021/10/01 03:08:53;;;;;;;;;;;;;;;;;;5084197;28;19924;-61
2021/10/01 03:11:20;;;;;;;;;;;;;;;;;;5089720;28;19924;-62
2021/10/01 03:13:47;;;;;;;;;;;;;;;;;;5084836;28;19990;-62
2021/10/01 03:16:14;;;;;;;;;;;;;;;;;;5086899;28;20348;-62
2021/10/01 03:18:41;;;;;;;;;;;;;;;;;;5088169;28;20294;-62
2021/10/01 03:21:08;;;;;;;;;;;;;;;;;;5089515;28;19924;-62
2021/10/01 03:23:35;;;;;;;;;;;;;;;;;;5082925;28;19924;-62
2021/10/01 03:26:02;;;;;;;;;;;;;;;;;;5089856;28;20304;-62
2021/10/01 03:28:29;;;;;;;;;;;;;;;;;;5088891;28;19931;-62
2021/10/01 03:30:56;;;;;;;;;;;;;;;;;;5088019;28;19936;-62
2021/10/01 03:33:24;;;;;;;;;;;;;;;;;;5090893;28;20371;-63
2021/10/01 03:35:51;;;;;;;;;;;;;;;;;;5086644;28;20411;-62
2021/10/01 03:38:19;;;;;;;;;;;;;;;;;;5083667;28;19954;-62
2021/10/01 03:40:46;;;;;;;;;;;;;;;;;;5085764;28;19924;-62
2021/10/01 03:43:13;;;;;;;;;;;;;;;;;;5102390;22;20000;-73
2021/10/01 03:45:40;;;;;;;;;;;;;;;;;;5082065;28;20006;-70
2021/10/01 03:48:07;;;;;;;;;;;;;;;;;;5090267;28;20323;-69
2021/10/01 03:50:34;;;;;;;;;;;;;;;;;;5092220;28;20414;-69
2021/10/01 03:53:01;;;;;;;;;;;;;;;;;;5085554;28;19924;-70
2021/10/01 03:55:28;;;;;;;;;;;;;;;;;;5088058;28;20017;-70
2021/10/01 03:57:55;;;;;;;;;;;;;;;;;;5090175;28;19931;-70
2021/10/01 04:00:22;;;;;;;;;;;;;;;;;;5087316;28;20379;-70
2021/10/01 04:02:49;;;;;;;;;;;;;;;;;;5093157;28;19930;-69
2021/10/01 04:05:16;;;;;;;;;;;;;;;;;;5090521;28;19924;-69
2021/10/01 04:07:43;;;;;;;;;;;;;;;;;;5086292;28;19925;-69
2021/10/01 04:10:11;;;;;;;;;;;;;;;;;;5087917;28;19924;-70
2021/10/01 04:12:38;;;;;;;;;;;;;;;;;;5091758;28;19924;-69
2021/10/01 04:15:05;;;;;;;;;;;;;;;;;;5088961;28;19924;-68
2021/10/01 04:17:32;;;;;;;;;;;;;;;;;;5092729;28;19925;-69
2021/10/01 04:19:59;;;;;;;;;;;;;;;;;;5089378;28;19932;-69
2021/10/01 04:22:26;;;;;;;;;;;;;;;;;;5089066;28;19964;-68
2021/10/01 04:24:53;;;;;;;;;;;;;;;;;;5088786;28;19935;-68
2021/10/01 04:27:23;;;;;;;;;;;;;;;;;;5091948;28;20404;-68
2021/10/01 04:29:50;;;;;;;;;;;;;;;;;;5089155;28;20038;-69
2021/10/01 04:32:17;;;;;;;;;;;;;;;;;;5087822;28;19930;-70
2021/10/01 04:34:58;;;;;;;;;;;;;;;;;;5089244;28;20326;-70
2021/10/01 04:37:25;;;;;;;;;;;;;;;;;;5086680;28;20063;-69
2021/10/01 04:39:52;;;;;;;;;;;;;;;;;;5091244;28;20451;-70
2021/10/01 04:42:22;;;;;;;;;;;;;;;;;;5092593;28;20295;-71
2021/10/01 04:44:49;;;;;;;;;;;;;;;;;;5093039;28;19982;-70
2021/10/01 04:47:16;;;;;;;;;;;;;;;;;;5090855;28;19924;-71
2021/10/01 04:49:43;;;;;;;;;;;;;;;;;;5090458;28;20398;-70
2021/10/01 04:52:10;;;;;;;;;;;;;;;;;;5100654;28;19978;-70
2021/10/01 04:54:37;;;;;;;;;;;;;;;;;;5092747;28;19924;-70
2021/10/01 04:57:04;;;;;;;;;;;;;;;;;;5093836;28;19935;-70
2021/10/01 04:59:31;;;;;;;;;;;;;;;;;;5087843;28;19947;-70
2021/10/01 05:01:58;;;;;;;;;;;;;;;;;;5084489;28;19924;-70
2021/10/01 05:04:25;;;;;;;;;;;;;;;;;;5095423;28;19924;-68
2021/10/01 05:06:52;;;;;;;;;;;;;;;;;;5088380;28;20413;-67
2021/10/01 05:09:19;;;;;;;;;;;;;;;;;;5095236;28;19930;-68
2021/10/01 05:11:46;;;;;;;;;;;;;;;;;;5092273;28;19928;-67
2021/10/01 05:14:13;;;;;;;;;;;;;;;;;;5089955;28;19945;-66
2021/10/01 05:16:43;;;;;;;;;;;;;;;;;;5094302;28;20417;-66
2021/10/01 05:19:10;;;;;;;;;;;;;;;;;;5093098;28;19924;-69
2021/10/01 05:21:37;;;;;;;;;;;;;;;;;;5092951;28;19924;-71
2021/10/01 05:24:04;;;;;;;;;;;;;;;;;;5093688;28;20027;-69
2021/10/01 05:26:33;;;;;;;;;;;;;;;;;;5083707;28;20392;-68
2021/10/01 05:29:00;;;;;;;;;;;;;;;;;;5083257;28;20272;-69
2021/10/01 05:31:28;;;;;;;;;;;;;;;;;;5091085;28;19930;-68
2021/10/01 05:33:55;;;;;;;;;;;;;;;;;;5088749;28;20465;-69
2021/10/01 05:36:22;;;;;;;;;;;;;;;;;;5091915;28;20290;-69
2021/10/01 05:38:49;;;;;;;;;;;;;;;;;;5087721;28;19924;-68
2021/10/01 05:41:16;;;;;;;;;;;;;;;;;;5095060;28;19924;-70
2021/10/01 05:43:43;;;;;;;;;;;;;;;;;;5086101;28;20327;-70
2021/10/01 05:46:10;;;;;;;;;;;;;;;;;;5091074;28;19928;-69
2021/10/01 05:48:40;;;;;;;;;;;;;;;;;;5089700;28;19930;-70
2021/10/01 05:51:10;;;;;;;;;;;;;;;;;;5087952;28;19924;-69
2021/10/01 05:53:47;;;;;;;;;;;;;;;;;;5089080;28;20349;-69
2021/10/01 05:56:14;;;;;;;;;;;;;;;;;;5089638;28;19973;-70
2021/10/01 05:58:41;;;;;;;;;;;;;;;;;;5090480;28;19924;-70
2021/10/01 06:01:08;;;;;;;;;;;;;;;;;;5088305;28;19928;-69
2021/10/01 06:03:35;;;;;;;;;;;;;;;;;;5091514;28;20414;-69
2021/10/01 06:06:02;;;;;;;;;;;;;;;;;;5090090;28;19924;-69
2021/10/01 06:08:29;;;;;;;;;;;;;;;;;;5088465;28;19931;-69
2021/10/01 06:10:56;;;;;;;;;;;;;;;;;;5094948;28;19924;-69
2021/10/01 06:13:23;;;;;;;;;;;;;;;;;;5089880;28;19931;-70
2021/10/01 06:15:49;;;;;;;;;;;;;;;;;;5092866;28;20295;-72
2021/10/01 06:18:16;;;;;;;;;;;;;;;;;;5090210;28;19923;-69
2021/10/01 06:20:43;;;;;;;;;;;;;;;;;;5089921;28;20007;-69
2021/10/01 06:23:10;;;;;;;;;;;;;;;;;;5083946;28;19928;-70
2021/10/01 06:25:37;;;;;;;;;;;;;;;;;;5080478;28;20366;-70
2021/10/01 06:28:04;;;;;;;;;;;;;;;;;;5087228;28;19928;-69
2021/10/01 06:30:31;;;;;;;;;;;;;;;;;;5083398;28;19931;-69
2021/10/01 06:32:58;;;;;;;;;;;;;;;;;;5086572;28;19932;-69
2021/10/01 06:35:25;;;;;;;;;;;;;;;;;;5089056;28;20320;-69
2021/10/01 06:37:52;;;;;;;;;;;;;;;;;;5086110;28;20370;-71
2021/10/01 06:40:19;;;;;;;;;;;;;;;;;;5080915;28;19924;-68
2021/10/01 06:42:56;;;;;;;;;;;;;;;;;;5074972;28;19951;-70
2021/10/01 06:45:25;;;;;;;;;;;;;;;;;;5089587;28;20419;-69
2021/10/01 06:47:57;;;;;;;;;;;;;;;;;;5086932;28;19996;-68
2021/10/01 06:51:07;;;;;;;;;;;;;;;;;;5084967;28;19924;-69
2021/10/01 07:21:35;;;;;;;;;;;;;;;;;;5085960;28;19919;-69
2021/10/01 07:24:13;;;;;;;;;;;;;;;;;;5090742;28;20342;-68
2021/10/01 07:34:29;;;;;;;;;;;;;;;;;;5090895;28;19919;-69
2021/10/01 08:19:23;;;;;;;;;;;;;;;;;;5091729;28;19943;-65
2021/10/01 08:21:50;;;;;;;;;;;;;;;;;;5090020;28;20291;-67
2021/10/01 08:24:17;;;;;;;;;;;;;;;;;;5087704;28;19928;-67
2021/10/01 08:26:44;;;;;;;;;;;;;;;;;;5089085;28;19935;-72
2021/10/01 08:29:11;;;;;;;;;;;;;;;;;;5089715;28;20232;-70
2021/10/01 08:31:38;;;;;;;;;;;;;;;;;;5086445;28;20441;-66
2021/10/01 08:34:05;;;;;;;;;;;;;;;;;;5091223;28;19928;-67
2021/10/01 08:36:32;;;;;;;;;;;;;;;;;;5090556;28;19924;-67
2021/10/01 08:38:59;;;;;;;;;;;;;;;;;;5087103;28;20523;-67
2021/10/01 08:41:26;;;;;;;;;;;;;;;;;;5085065;28;19947;-67
2021/10/01 08:43:53;;;;;;;;;;;;;;;;;;5087119;28;19924;-67
2021/10/01 08:46:20;;;;;;;;;;;;;;;;;;5089174;28;19935;-66
2021/10/01 08:48:47;;;;;;;;;;;;;;;;;;5091343;28;20392;-66
2021/10/01 08:51:14;;;;;;;;;;;;;;;;;;5085287;28;19924;-66
2021/10/01 08:53:41;;;;;;;;;;;;;;;;;;5092538;28;20272;-66
2021/10/01 08:56:08;;;;;;;;;;;;;;;;;;5090050;28;19928;-66
2021/10/01 08:58:35;;;;;;;;;;;;;;;;;;5086230;28;19924;-67
2021/10/01 09:01:02;;;;;;;;;;;;;;;;;;5090309;28;20295;-66
2021/10/01 09:03:29;;;;;;;;;;;;;;;;;;5090384;28;20387;-67
2021/10/01 09:05:56;;;;;;;;;;;;;;;;;;5089631;28;19931;-66
2021/10/01 09:08:23;;;;;;;;;;;;;;;;;;5087885;28;19928;-66
2021/10/01 09:10:50;;;;;;;;;;;;;;;;;;5087803;28;19928;-67
2021/10/01 09:13:17;;;;;;;;;;;;;;;;;;5088674;28;19931;-66
2021/10/01 09:15:44;;;;;;;;;;;;;;;;;;5092018;28;20388;-66
2021/10/01 09:18:11;;;;;;;;;;;;;;;;;;5088396;28;19932;-66
2021/10/01 09:20:38;;;;;;;;;;;;;;;;;;5089715;28;20315;-66
2021/10/01 09:23:05;;;;;;;;;;;;;;;;;;5089362;28;19924;-66
2021/10/01 09:25:32;;;;;;;;;;;;;;;;;;5085662;28;19928;-67
2021/10/01 09:27:59;;;;;;;;;;;;;;;;;;5092574;28;20027;-66
2021/10/01 09:30:26;;;;;;;;;;;;;;;;;;5088564;28;20296;-67
2021/10/01 09:32:53;;;;;;;;;;;;;;;;;;5087681;28;20346;-66
2021/10/01 09:35:21;;;;;;;;;;;;;;;;;;5089338;28;19924;-66
2021/10/01 09:37:48;;;;;;;;;;;;;;;;;;5087574;28;19977;-66
2021/10/01 09:40:15;;;;;;;;;;;;;;;;;;5085271;28;19924;-67
2021/10/01 09:42:44;;;;;;;;;;;;;;;;;;5100664;22;20105;-64
2021/10/01 09:45:11;;;;;;;;;;;;;;;;;;5088312;28;19967;-64
2021/10/01 09:47:37;;;;;;;;;;;;;;;;;;5091109;28;19924;-64
2021/10/01 09:50:04;;;;;;;;;;;;;;;;;;5087923;28;19930;-64
2021/10/01 09:52:31;;;;;;;;;;;;;;;;;;5088576;28;19951;-64
2021/10/01 09:54:58;;;;;;;;;;;;;;;;;;5089826;28;20314;-65
2021/10/01 09:57:25;;;;;;;;;;;;;;;;;;5089185;28;19931;-64
2021/10/01 09:59:52;;;;;;;;;;;;;;;;;;5084656;28;19931;-64
2021/10/01 10:02:19;;;;;;;;;;;;;;;;;;5091245;28;19924;-64
2021/10/01 10:04:46;;;;;;;;;;;;;;;;;;5087607;28;19932;-64
2021/10/01 10:07:13;;;;;;;;;;;;;;;;;;5086699;28;19950;-64
2021/10/01 10:09:40;;;;;;;;;;;;;;;;;;5091378;28;19924;-65
2021/10/01 10:12:07;;;;;;;;;;;;;;;;;;5087983;28;19928;-63
2021/10/01 10:14:34;;;;;;;;;;;;;;;;;;5086083;28;19977;-64
2021/10/01 10:17:01;;;;;;;;;;;;;;;;;;5085744;28;19932;-64
2021/10/01 10:19:30;;;;;;;;;;;;;;;;;;5086622;28;19928;-64
2021/10/01 10:21:57;;;;;;;;;;;;;;;;;;5086822;28;20384;-64
2021/10/01 10:24:24;;;;;;;;;;;;;;;;;;5089330;28;19928;-64
2021/10/01 10:26:51;;;;;;;;;;;;;;;;;;5086434;28;19924;-63
2021/10/01 10:29:18;;;;;;;;;;;;;;;;;;5088947;28;19924;-64
2021/10/01 10:31:46;;;;;;;;;;;;;;;;;;5086058;28;19936;-64
2021/10/01 10:34:13;;;;;;;;;;;;;;;;;;5089153;28;19935;-64
2021/10/01 10:36:41;;;;;;;;;;;;;;;;;;5084537;28;19924;-64
2021/10/01 10:39:08;;;;;;;;;;;;;;;;;;5084743;28;20354;-64
2021/10/01 10:41:35;;;;;;;;;;;;;;;;;;5087142;28;19928;-64
2021/10/01 10:44:02;;;;;;;;;;;;;;;;;;5083535;28;19924;-64
2021/10/01 10:46:29;;;;;;;;;;;;;;;;;;5087736;28;19930;-64
2021/10/01 10:48:56;;;;;;;;;;;;;;;;;;5089454;28;20371;-64
2021/10/01 10:51:23;;;;;;;;;;;;;;;;;;5088510;28;19931;-64
2021/10/01 10:53:49;;;;;;;;;;;;;;;;;;5085902;28;19928;-63
2021/10/01 10:56:18;;;;;;;;;;;;;;;;;;5084005;28;19924;-63
2021/10/01 10:58:53;;;;;;;;;;;;;;;;;;5086942;28;20532;-64
2021/10/01 11:01:22;;;;;;;;;;;;;;;;;;5087030;28;20031;-63
2021/10/01 11:03:51;;;;;;;;;;;;;;;;;;5085234;28;19924;-62
2021/10/01 11:06:18;;;;;;;;;;;;;;;;;;5086939;28;20023;-63
2021/10/01 11:08:45;;;;;;;;;;;;;;;;;;5090642;28;19977;-64
2021/10/01 11:11:12;;;;;;;;;;;;;;;;;;5085069;28;19931;-64
2021/10/01 11:13:39;;;;;;;;;;;;;;;;;;5086779;28;20388;-64
2021/10/01 11:16:06;;;;;;;;;;;;;;;;;;5084892;28;19924;-63
2021/10/01 11:18:33;;;;;;;;;;;;;;;;;;5085923;28;19931;-64
2021/10/01 11:21:00;;;;;;;;;;;;;;;;;;5082515;28;19928;-64
2021/10/01 11:23:27;;;;;;;;;;;;;;;;;;5089836;28;19924;-64
2021/10/01 11:25:54;;;;;;;;;;;;;;;;;;5084146;28;19958;-64
2021/10/01 11:28:21;;;;;;;;;;;;;;;;;;5090578;28;19924;-63
2021/10/01 11:30:48;;;;;;;;;;;;;;;;;;5087810;28;19925;-64
2021/10/01 11:33:15;;;;;;;;;;;;;;;;;;5085245;28;19928;-64
2021/10/01 11:35:42;;;;;;;;;;;;;;;;;;5088425;28;19924;-66
2021/10/01 11:38:10;;;;;;;;;;;;;;;;;;5084946;28;20397;-65
2021/10/01 11:40:37;;;;;;;;;;;;;;;;;;5088304;28;19924;-65
2021/10/01 11:43:04;;;;;;;;;;;;;;;;;;5083135;28;20279;-65
2021/10/01 11:45:32;;;;;;;;;;;;;;;;;;5082742;28;19932;-65
2021/10/01 11:47:59;;;;;;;;;;;;;;;;;;5081843;28;20426;-62
2021/10/01 11:50:26;;;;;;;;;;;;;;;;;;5085856;28;19924;-63
2021/10/01 11:52:53;;;;;;;;;;;;;;;;;;5086727;28;19924;-62
2021/10/01 11:55:20;;;;;;;;;;;;;;;;;;5082102;28;19928;-62
2021/10/01 11:57:48;;;;;;;;;;;;;;;;;;5089419;28;19924;-62
2021/10/01 12:00:15;;;;;;;;;;;;;;;;;;5089740;28;19928;-61
2021/10/01 12:02:42;;;;;;;;;;;;;;;;;;5082652;28;19924;-63
2021/10/01 12:05:09;;;;;;;;;;;;;;;;;;5087618;28;19924;-62
2021/10/01 12:07:36;;;;;;;;;;;;;;;;;;5086505;28;20284;-62
2021/10/01 12:10:03;;;;;;;;;;;;;;;;;;5080237;28;19935;-62
2021/10/01 12:12:30;;;;;;;;;;;;;;;;;;5087971;28;19924;-62
2021/10/01 12:14:57;;;;;;;;;;;;;;;;;;5092961;28;19924;-63
2021/10/01 12:17:24;;;;;;;;;;;;;;;;;;5087549;28;20387;-63
2021/10/01 12:19:51;;;;;;;;;;;;;;;;;;5090254;28;19928;-63
2021/10/01 12:22:19;;;;;;;;;;;;;;;;;;5084724;28;19931;-63
2021/10/01 12:24:46;;;;;;;;;;;;;;;;;;5085529;28;19932;-63
2021/10/01 12:27:13;;;;;;;;;;;;;;;;;;5091293;28;20376;-63
2021/10/01 12:29:42;;;;;;;;;;;;;;;;;;5089667;28;19932;-64
2021/10/01 12:32:09;;;;;;;;;;;;;;;;;;5088250;28;19924;-64
2021/10/01 12:34:36;;;;;;;;;;;;;;;;;;5090247;28;19924;-64
2021/10/01 12:37:03;;;;;;;;;;;;;;;;;;5088529;28;20399;-64
2021/10/01 12:39:30;;;;;;;;;;;;;;;;;;5088263;28;19924;-63
2021/10/01 12:41:57;;;;;;;;;;;;;;;;;;5087655;28;19924;-64
2021/10/01 12:44:24;;;;;;;;;;;;;;;;;;5083564;28;19931;-63
2021/10/01 12:46:51;;;;;;;;;;;;;;;;;;5084285;28;19923;-63
2021/10/01 12:49:18;;;;;;;;;;;;;;;;;;5087126;28;19948;-64
2021/10/01 12:51:45;;;;;;;;;;;;;;;;;;5088820;28;19928;-64
2021/10/01 12:54:12;;;;;;;;;;;;;;;;;;5091592;28;19931;-63
2021/10/01 12:56:39;;;;;;;;;;;;;;;;;;5090011;28;19931;-64
2021/10/01 12:59:06;;;;;;;;;;;;;;;;;;5088628;28;19924;-64
2021/10/01 13:01:33;;;;;;;;;;;;;;;;;;5092530;28;19926;-63
2021/10/01 13:04:00;;;;;;;;;;;;;;;;;;5087562;28;19924;-63
2021/10/01 13:06:27;;;;;;;;;;;;;;;;;;5089246;28;19924;-63
2021/10/01 13:08:54;;;;;;;;;;;;;;;;;;5085855;28;19940;-63
2021/10/01 13:11:21;;;;;;;;;;;;;;;;;;5088340;28;19924;-66
2021/10/01 13:13:48;;;;;;;;;;;;;;;;;;5088290;28;20291;-62
2021/10/01 13:16:15;;;;;;;;;;;;;;;;;;5084348;28;19932;-62
2021/10/01 13:18:42;;;;;;;;;;;;;;;;;;5085891;28;19924;-62
2021/10/01 13:21:09;;;;;;;;;;;;;;;;;;5083216;28;20396;-64
2021/10/01 13:23:36;;;;;;;;;;;;;;;;;;5087236;28;19925;-64
2021/10/01 13:26:03;;;;;;;;;;;;;;;;;;5090547;28;19930;-63
2021/10/01 13:28:30;;;;;;;;;;;;;;;;;;5089197;28;20310;-65
2021/10/01 13:30:57;;;;;;;;;;;;;;;;;;5089372;28;19924;-63
2021/10/01 13:33:24;;;;;;;;;;;;;;;;;;5087955;28;19928;-64
2021/10/01 13:35:56;;;;;;;;;;;;;;;;;;5088679;28;20713;-64
2021/10/01 13:38:24;;;;;;;;;;;;;;;;;;5087364;28;20295;-63
2021/10/01 13:40:51;;;;;;;;;;;;;;;;;;5087927;28;19932;-64
2021/10/01 13:43:18;;;;;;;;;;;;;;;;;;5084478;28;20392;-66
2021/10/01 13:45:45;;;;;;;;;;;;;;;;;;5081983;28;19932;-65
2021/10/01 13:48:13;;;;;;;;;;;;;;;;;;5081546;28;20421;-66
2021/10/01 13:50:40;;;;;;;;;;;;;;;;;;5086906;28;19928;-63
2021/10/01 13:53:07;;;;;;;;;;;;;;;;;;5089485;28;20350;-65
2021/10/01 13:55:34;;;;;;;;;;;;;;;;;;5083515;28;19930;-65
2021/10/01 13:58:01;;;;;;;;;;;;;;;;;;5085778;28;19940;-66
2021/10/01 14:00:28;;;;;;;;;;;;;;;;;;5091529;28;20307;-69
2021/10/01 14:02:55;;;;;;;;;;;;;;;;;;5088544;28;19934;-66
2021/10/01 14:05:21;;;;;;;;;;;;;;;;;;5083228;28;19928;-65
2021/10/01 14:07:48;;;;;;;;;;;;;;;;;;5084300;28;19932;-70
2021/10/01 14:10:15;;;;;;;;;;;;;;;;;;5082005;28;20396;-66
2021/10/01 14:12:43;;;;;;;;;;;;;;;;;;5084921;28;20308;-66
2021/10/01 14:15:10;;;;;;;;;;;;;;;;;;5086556;28;19925;-66
2021/10/01 14:17:37;;;;;;;;;;;;;;;;;;5084175;28;19935;-66
2021/10/01 14:20:04;;;;;;;;;;;;;;;;;;5087446;28;19928;-65
2021/10/01 14:22:31;;;;;;;;;;;;;;;;;;5087275;28;20416;-65
2021/10/01 14:24:58;;;;;;;;;;;;;;;;;;5087346;28;19925;-63
2021/10/01 14:27:25;;;;;;;;;;;;;;;;;;5088629;28;19972;-64
2021/10/01 14:29:52;;;;;;;;;;;;;;;;;;5089497;28;19951;-65
2021/10/01 14:32:20;;;;;;;;;;;;;;;;;;5088567;28;19924;-65
2021/10/01 14:34:47;;;;;;;;;;;;;;;;;;5087574;28;20440;-65
2021/10/01 14:37:14;;;;;;;;;;;;;;;;;;5087243;28;20147;-65
2021/10/01 14:39:41;;;;;;;;;;;;;;;;;;5086341;28;19932;-65
2021/10/01 14:42:07;;;;;;;;;;;;;;;;;;5084666;28;20200;-64
2021/10/01 14:44:35;;;;;;;;;;;;;;;;;;5089600;28;19924;-64
2021/10/01 14:47:02;;;;;;;;;;;;;;;;;;5085028;28;19974;-64
2021/10/01 14:49:28;;;;;;;;;;;;;;;;;;5086419;28;19924;-64
2021/10/01 14:51:55;;;;;;;;;;;;;;;;;;5085031;28;20376;-64
2021/10/01 14:54:22;;;;;;;;;;;;;;;;;;5084316;28;19925;-64
2021/10/01 14:56:49;;;;;;;;;;;;;;;;;;5089290;28;20018;-64
2021/10/01 14:59:16;;;;;;;;;;;;;;;;;;5084097;28;19932;-64
2021/10/01 15:01:44;;;;;;;;;;;;;;;;;;5087341;28;20031;-64
2021/10/01 15:04:11;;;;;;;;;;;;;;;;;;5084174;28;19967;-64
2021/10/01 15:06:38;;;;;;;;;;;;;;;;;;5089497;28;19923;-65
2021/10/01 15:09:05;;;;;;;;;;;;;;;;;;5083192;28;19924;-64
2021/10/01 15:11:32;;;;;;;;;;;;;;;;;;5081812;28;20046;-64
2021/10/01 15:13:59;;;;;;;;;;;;;;;;;;5084163;28;19924;-63
2021/10/01 15:16:26;;;;;;;;;;;;;;;;;;5091209;28;19934;-64
2021/10/01 15:18:53;;;;;;;;;;;;;;;;;;5080504;28;19931;-63
2021/10/01 15:21:20;;;;;;;;;;;;;;;;;;5085197;28;20367;-70
2021/10/01 15:23:47;;;;;;;;;;;;;;;;;;5081953;28;20326;-64
2021/10/01 15:26:15;;;;;;;;;;;;;;;;;;5086682;28;20397;-64
2021/10/01 15:28:42;;;;;;;;;;;;;;;;;;5086217;28;20026;-65
2021/10/01 15:31:09;;;;;;;;;;;;;;;;;;5083743;28;19932;-64
2021/10/01 15:33:36;;;;;;;;;;;;;;;;;;5084833;28;20167;-64
2021/10/01 15:36:03;;;;;;;;;;;;;;;;;;5085472;28;20015;-64
2021/10/01 15:38:31;;;;;;;;;;;;;;;;;;5082632;28;19938;-64
2021/10/01 15:40:58;;;;;;;;;;;;;;;;;;5083171;28;20407;-65
2021/10/01 15:43:25;;;;;;;;;;;;;;;;;;5103638;22;19928;-62
2021/10/01 15:45:53;;;;;;;;;;;;;;;;;;5090429;28;20264;-63
2021/10/01 15:48:21;;;;;;;;;;;;;;;;;;5090195;28;20411;-63
2021/10/01 15:50:48;;;;;;;;;;;;;;;;;;5086773;28;19932;-63
2021/10/01 15:53:15;;;;;;;;;;;;;;;;;;5090831;28;20018;-63
2021/10/01 15:55:42;;;;;;;;;;;;;;;;;;5089173;28;19930;-62
2021/10/01 15:58:10;;;;;;;;;;;;;;;;;;5091861;28;19924;-63
2021/10/01 16:00:39;;;;;;;;;;;;;;;;;;5090338;28;19928;-64
2021/10/01 16:03:07;;;;;;;;;;;;;;;;;;5084688;28;19930;-63
2021/10/01 16:05:34;;;;;;;;;;;;;;;;;;5089660;28;19924;-63
2021/10/01 16:08:02;;;;;;;;;;;;;;;;;;5091415;28;19928;-63
2021/10/01 16:10:29;;;;;;;;;;;;;;;;;;5088209;28;19925;-65
2021/10/01 16:12:57;;;;;;;;;;;;;;;;;;5087016;28;19931;-63
2021/10/01 16:15:24;;;;;;;;;;;;;;;;;;5087626;28;19924;-63
2021/10/01 16:17:51;;;;;;;;;;;;;;;;;;5092297;28;19924;-63
2021/10/01 16:20:19;;;;;;;;;;;;;;;;;;5090796;28;19932;-63
2021/10/01 16:22:47;;;;;;;;;;;;;;;;;;5090439;28;19971;-63
2021/10/01 16:25:14;;;;;;;;;;;;;;;;;;5092750;28;19981;-63
2021/10/01 16:27:41;;;;;;;;;;;;;;;;;;5087296;28;19931;-63
2021/10/01 16:30:08;;;;;;;;;;;;;;;;;;5089137;28;20006;-64
2021/10/01 16:32:35;;;;;;;;;;;;;;;;;;5087509;28;19928;-63
2021/10/01 16:35:01;;;;;;;;;;;;;;;;;;5087455;28;19932;-62
2021/10/01 16:37:30;;;;;;;;;;;;;;;;;;5091581;28;19925;-63
2021/10/01 16:39:57;;;;;;;;;;;;;;;;;;5087592;28;19924;-63
2021/10/01 16:42:24;;;;;;;;;;;;;;;;;;5090975;28;19924;-63
2021/10/01 16:44:51;;;;;;;;;;;;;;;;;;5093280;28;19934;-63
2021/10/01 16:47:18;;;;;;;;;;;;;;;;;;5089888;28;19924;-63
2021/10/01 16:49:45;;;;;;;;;;;;;;;;;;5089109;28;19936;-63
2021/10/01 16:52:12;;;;;;;;;;;;;;;;;;5089827;28;19944;-63
2021/10/01 16:54:40;;;;;;;;;;;;;;;;;;5091299;28;19968;-63
2021/10/01 16:57:07;;;;;;;;;;;;;;;;;;5089596;28;19963;-63
2021/10/01 16:59:34;;;;;;;;;;;;;;;;;;5089623;28;19928;-63
2021/10/01 17:02:01;;;;;;;;;;;;;;;;;;5088985;28;20339;-64
2021/10/01 17:04:28;;;;;;;;;;;;;;;;;;5091441;28;19930;-63
2021/10/01 17:06:55;;;;;;;;;;;;;;;;;;5087667;28;19925;-63
2021/10/01 17:09:23;;;;;;;;;;;;;;;;;;5085231;28;20375;-63
2021/10/01 17:11:50;;;;;;;;;;;;;;;;;;5091920;28;20345;-63
2021/10/01 17:14:17;;;;;;;;;;;;;;;;;;5087812;28;19928;-63
2021/10/01 17:16:44;;;;;;;;;;;;;;;;;;5092016;28;19924;-63
2021/10/01 17:19:11;;;;;;;;;;;;;;;;;;5086973;28;19932;-63
2021/10/01 17:21:38;;;;;;;;;;;;;;;;;;5089250;28;19939;-63
2021/10/01 17:24:05;;;;;;;;;;;;;;;;;;5085965;28;19924;-63
2021/10/01 17:26:33;;;;;;;;;;;;;;;;;;5089583;28;19930;-64
2021/10/01 17:29:00;;;;;;;;;;;;;;;;;;5085186;28;20302;-63
2021/10/01 17:31:27;;;;;;;;;;;;;;;;;;5087665;28;19948;-63
2021/10/01 17:33:54;;;;;;;;;;;;;;;;;;5089365;28;19935;-63
2021/10/01 17:36:21;;;;;;;;;;;;;;;;;;5087982;28;19925;-63
2021/10/01 17:38:47;;;;;;;;;;;;;;;;;;5088219;28;19928;-63
2021/10/01 17:41:14;;;;;;;;;;;;;;;;;;5089978;28;19936;-63
2021/10/01 17:43:41;;;;;;;;;;;;;;;;;;5088140;28;20290;-63
2021/10/01 17:46:08;;;;;;;;;;;;;;;;;;5088483;28;19924;-63
2021/10/01 17:48:35;;;;;;;;;;;;;;;;;;5087960;28;20318;-64
2021/10/01 17:51:02;;;;;;;;;;;;;;;;;;5087663;28;19934;-63
2021/10/01 17:53:29;;;;;;;;;;;;;;;;;;5088785;28;20291;-63
2021/10/01 17:55:56;;;;;;;;;;;;;;;;;;5090194;28;19930;-63
2021/10/01 17:58:23;;;;;;;;;;;;;;;;;;5088960;28;19932;-63
2021/10/01 18:00:52;;;;;;;;;;;;;;;;;;5088455;28;19970;-63
2021/10/01 18:03:19;;;;;;;;;;;;;;;;;;5089336;28;19924;-63